createdAt,value
2023-03-06T00:01:35.910Z,75.35
2023-03-06T00:04:09.320Z,75.30
2023-03-06T00:06:42.608Z,75.22
2023-03-06T00:09:16.092Z,75.27
2023-03-06T00:11:49.705Z,75.28
2023-03-06T00:14:23.081Z,75.27
2023-03-06T00:16:58.187Z,75.31
2023-03-06T00:19:31.562Z,75.38
2023-03-06T00:22:05.036Z,75.37
2023-03-06T00:24:38.462Z,75.36
2023-03-06T00:27:12.095Z,75.37
2023-03-06T00:29:47.378Z,75.40
2023-03-06T00:32:21.139Z,75.37
2023-03-06T00:34:55.350Z,75.31
2023-03-06T00:37:28.798Z,75.32
2023-03-06T00:40:02.390Z,75.33
2023-03-06T00:42:35.962Z,75.24
2023-03-06T00:45:11.255Z,75.22
2023-03-06T00:47:44.671Z,75.26
2023-03-06T00:50:18.395Z,75.30
2023-03-06T00:52:51.828Z,75.32
2023-03-06T00:55:25.107Z,75.39
2023-03-06T00:57:58.468Z,75.39
2023-03-06T01:00:32.874Z,75.46
2023-03-06T01:03:06.398Z,75.51
2023-03-06T01:05:40.353Z,75.56
2023-03-06T01:08:13.726Z,75.50
2023-03-06T01:10:47.274Z,75.52
2023-03-06T01:13:21.144Z,75.51
2023-03-06T01:15:56.254Z,75.41
2023-03-06T01:18:29.761Z,75.34
2023-03-06T01:21:03.661Z,75.25
2023-03-06T01:23:37.180Z,75.17
2023-03-06T01:26:10.803Z,75.11
2023-03-06T01:28:44.475Z,75.09
2023-03-06T01:31:18.143Z,75.00
2023-03-06T01:33:51.230Z,74.90
2023-03-06T01:36:24.850Z,74.83
2023-03-06T01:38:58.298Z,74.84
2023-03-06T01:41:32.852Z,74.72
2023-03-06T01:44:06.491Z,74.71
2023-03-06T01:46:42.310Z,74.68
2023-03-06T01:49:20.018Z,74.57
2023-03-06T01:51:56.841Z,74.50
2023-03-06T01:54:33.344Z,74.48
2023-03-06T01:57:09.846Z,74.48
2023-03-06T01:59:44.137Z,74.48
2023-03-06T02:02:18.035Z,74.41
2023-03-06T02:04:51.647Z,74.46
2023-03-06T02:07:26.381Z,74.39
2023-03-06T02:09:59.881Z,74.30
2023-03-06T02:12:35.762Z,74.27
2023-03-06T02:15:11.228Z,74.34
2023-03-06T02:17:46.039Z,74.34
2023-03-06T02:20:23.111Z,74.29
2023-03-06T02:22:59.757Z,74.21
2023-03-06T02:25:40.233Z,74.06
2023-03-06T02:28:16.280Z,74.16
2023-03-06T02:30:51.648Z,74.10
2023-03-06T02:33:27.335Z,74.08
2023-03-06T02:36:04.534Z,74.09
2023-03-06T02:38:40.782Z,74.12
2023-03-06T02:41:14.362Z,74.07
2023-03-06T02:43:49.484Z,74.06
2023-03-06T02:46:23.343Z,74.07
2023-03-06T02:48:57.124Z,74.06
2023-03-06T02:51:31.208Z,74.04
2023-03-06T02:54:04.593Z,74.11
2023-03-06T02:56:38.044Z,74.03
2023-03-06T02:59:11.635Z,74.02
2023-03-06T03:01:48.168Z,74.07
2023-03-06T03:04:21.956Z,74.11
2023-03-06T03:06:55.400Z,74.19
2023-03-06T03:09:31.964Z,74.25
2023-03-06T03:12:08.591Z,74.24
2023-03-06T03:14:42.260Z,74.28
2023-03-06T03:17:15.477Z,74.39
2023-03-06T03:19:48.900Z,74.49
2023-03-06T03:22:22.811Z,74.46
2023-03-06T03:24:56.363Z,74.48
2023-03-06T03:27:29.733Z,74.39
2023-03-06T03:30:04.623Z,74.48
2023-03-06T03:32:38.504Z,74.40
2023-03-06T03:35:13.523Z,74.49
2023-03-06T03:37:47.458Z,74.57
2023-03-06T03:40:21.507Z,74.54
2023-03-06T03:42:55.375Z,74.60
2023-03-06T03:45:28.573Z,74.65
2023-03-06T03:48:02.508Z,74.70
2023-03-06T03:50:37.136Z,74.66
2023-03-06T03:53:10.943Z,74.72
2023-03-06T03:55:44.787Z,74.70
2023-03-06T03:58:18.149Z,74.58
2023-03-06T04:00:51.604Z,74.57
2023-03-06T04:03:25.072Z,74.60
2023-03-06T04:05:58.737Z,74.61
2023-03-06T04:08:32.910Z,74.59
2023-03-06T04:11:07.198Z,74.54
2023-03-06T04:13:40.597Z,74.48
2023-03-06T04:16:14.142Z,74.42
2023-03-06T04:18:47.440Z,74.47
2023-03-06T04:21:22.089Z,74.46
2023-03-06T04:23:55.329Z,74.47
2023-03-06T04:26:29.015Z,74.46
2023-03-06T04:29:02.789Z,74.46
2023-03-06T04:31:36.812Z,74.42
2023-03-06T04:34:10.540Z,74.43
2023-03-06T04:36:45.300Z,74.40
2023-03-06T04:39:19.441Z,74.38
2023-03-06T04:41:53.513Z,74.51
2023-03-06T04:44:27.171Z,74.50
2023-03-06T04:47:00.534Z,74.61
2023-03-06T04:49:33.902Z,74.74
2023-03-06T04:52:08.300Z,74.84
2023-03-06T04:54:42.964Z,74.77
2023-03-06T04:57:16.629Z,74.76
2023-03-06T04:59:50.756Z,74.80
2023-03-06T05:02:25.024Z,74.72
2023-03-06T05:05:00.091Z,74.80
2023-03-06T05:07:34.269Z,74.92
2023-03-06T05:10:11.153Z,74.97
2023-03-06T05:12:44.440Z,74.90
2023-03-06T05:15:17.973Z,74.77
2023-03-06T05:17:51.730Z,74.53
2023-03-06T05:20:25.365Z,74.59
2023-03-06T05:22:58.570Z,74.60
2023-03-06T05:25:32.024Z,74.57
2023-03-06T05:28:05.529Z,74.58
2023-03-06T05:30:39.893Z,74.28
2023-03-06T05:33:13.406Z,74.21
2023-03-06T05:35:49.472Z,74.28
2023-03-06T05:38:23.378Z,74.31
2023-03-06T05:40:59.927Z,74.03
2023-03-06T05:43:33.347Z,74.12
2023-03-06T05:46:08.148Z,74.08
2023-03-06T05:48:41.987Z,73.95
2023-03-06T05:51:15.832Z,73.73
2023-03-06T05:53:50.467Z,73.60
2023-03-06T05:56:24.210Z,73.46
2023-03-06T05:58:57.293Z,73.53
2023-03-06T06:01:30.834Z,73.39
2023-03-06T06:04:04.181Z,73.09
2023-03-06T06:06:37.555Z,72.81
2023-03-06T06:09:13.760Z,73.09
2023-03-06T06:11:46.022Z,72.67
2023-03-06T06:14:19.675Z,71.77
2023-03-06T06:16:53.307Z,71.89
2023-03-06T06:19:28.467Z,71.73
2023-03-06T06:22:03.927Z,71.65
2023-03-06T06:24:37.455Z,71.06
2023-03-06T06:27:11.301Z,70.80
2023-03-06T06:29:45.135Z,71.29
2023-03-06T06:32:18.286Z,69.73
2023-03-06T06:34:51.765Z,69.68
2023-03-06T06:37:26.227Z,69.75
2023-03-06T06:39:59.761Z,69.35
2023-03-06T06:42:39.954Z,68.55
2023-03-06T06:45:13.540Z,67.54
2023-03-06T06:47:47.209Z,68.15
2023-03-06T06:50:22.052Z,68.44
2023-03-06T06:52:55.665Z,67.56
2023-03-06T06:55:29.606Z,66.97
2023-03-06T06:58:03.209Z,67.77
2023-03-06T07:00:36.823Z,67.76
2023-03-06T07:03:11.711Z,67.34
2023-03-06T07:05:45.230Z,66.87
2023-03-06T07:08:18.848Z,65.66
2023-03-06T07:10:52.468Z,66.20
2023-03-06T07:13:26.115Z,66.33
2023-03-06T07:15:59.701Z,66.74
2023-03-06T07:18:32.975Z,66.93
2023-03-06T07:21:07.448Z,66.21
2023-03-06T07:23:40.880Z,66.25
2023-03-06T07:26:14.735Z,65.76
2023-03-06T07:28:52.774Z,66.16
2023-03-06T07:31:26.774Z,66.01
2023-03-06T07:34:02.509Z,65.44
2023-03-06T07:36:35.757Z,65.66
2023-03-06T07:39:09.590Z,66.33
2023-03-06T07:41:42.975Z,65.69
2023-03-06T07:44:16.646Z,65.58
2023-03-06T07:46:50.058Z,65.95
2023-03-06T07:49:23.284Z,65.72
2023-03-06T07:51:56.866Z,65.23
2023-03-06T07:54:32.816Z,64.67
2023-03-06T07:57:06.641Z,63.89
2023-03-06T07:59:39.762Z,63.76
2023-03-06T08:02:13.900Z,63.50
2023-03-06T08:04:48.864Z,63.20
2023-03-06T08:07:23.175Z,63.80
2023-03-06T08:09:56.868Z,63.63
2023-03-06T08:12:31.712Z,62.67
2023-03-06T08:15:06.104Z,63.03
2023-03-06T08:17:39.517Z,63.08
2023-03-06T08:20:15.325Z,63.36
2023-03-06T08:22:51.823Z,63.12
2023-03-06T08:25:25.677Z,62.88
2023-03-06T08:27:59.068Z,62.28
2023-03-06T08:30:33.410Z,62.54
2023-03-06T08:33:07.249Z,63.07
2023-03-06T08:35:40.987Z,63.55
2023-03-06T08:38:14.658Z,63.92
2023-03-06T08:40:48.114Z,63.96
2023-03-06T08:43:21.777Z,63.56
2023-03-06T08:45:56.021Z,63.57
2023-03-06T08:48:29.764Z,62.81
2023-03-06T08:51:03.425Z,62.36
2023-03-06T08:53:43.270Z,62.43
2023-03-06T08:56:20.124Z,62.45
2023-03-06T08:58:55.000Z,61.55
2023-03-06T09:01:30.201Z,59.49
2023-03-06T09:04:05.603Z,59.41
2023-03-06T09:06:41.092Z,59.32
2023-03-06T09:09:14.787Z,59.60
2023-03-06T09:11:51.354Z,59.21
2023-03-06T09:14:24.962Z,55.86
2023-03-06T09:16:58.122Z,56.64
2023-03-06T09:19:33.521Z,55.66
2023-03-06T09:22:08.723Z,55.03
2023-03-06T09:24:42.408Z,56.38
2023-03-06T09:27:15.559Z,56.72
2023-03-06T09:29:49.074Z,58.45
2023-03-06T09:32:22.987Z,58.37
2023-03-06T09:34:56.502Z,58.68
2023-03-06T09:37:30.305Z,58.46
2023-03-06T09:40:05.079Z,58.71
2023-03-06T09:42:39.114Z,59.09
2023-03-06T09:45:15.228Z,60.38
2023-03-06T09:47:55.711Z,61.02
2023-03-06T09:50:41.094Z,60.25
2023-03-06T09:53:27.353Z,60.38
2023-03-06T09:56:04.056Z,60.40
2023-03-06T09:58:40.527Z,59.97
2023-03-06T10:01:19.169Z,60.32
2023-03-06T10:03:55.805Z,61.22
2023-03-06T10:06:32.564Z,61.37
2023-03-06T10:09:09.374Z,60.76
2023-03-06T10:11:45.736Z,60.42
2023-03-06T10:14:23.870Z,61.57
2023-03-06T10:16:58.669Z,62.76
2023-03-06T10:19:35.250Z,63.03
2023-03-06T10:22:13.996Z,62.75
2023-03-06T10:24:52.834Z,63.37
2023-03-06T10:27:32.677Z,63.98
2023-03-06T10:30:14.860Z,64.88
2023-03-06T10:32:51.248Z,65.79
2023-03-06T10:35:30.479Z,66.53
2023-03-06T10:38:08.056Z,66.93
2023-03-06T10:40:41.656Z,67.44
2023-03-06T10:43:14.852Z,67.48
2023-03-06T10:45:53.167Z,67.72
2023-03-06T10:48:28.664Z,68.11
2023-03-06T10:51:19.325Z,68.42
2023-03-06T10:53:56.297Z,68.67
2023-03-06T10:56:32.238Z,68.91
2023-03-06T10:59:11.683Z,68.96
2023-03-06T11:01:46.415Z,68.55
2023-03-06T11:04:29.428Z,68.60
2023-03-06T11:07:17.333Z,68.33
2023-03-06T11:10:02.470Z,67.72
2023-03-06T11:12:38.068Z,66.38
2023-03-06T11:15:30.188Z,65.96
2023-03-06T11:18:06.718Z,65.35
2023-03-06T11:20:52.057Z,66.45
2023-03-06T11:23:23.526Z,67.55
2023-03-06T11:26:01.356Z,67.70
2023-03-06T11:28:34.592Z,67.75
2023-03-06T11:31:10.874Z,67.61
2023-03-06T11:33:47.188Z,66.92
2023-03-06T11:36:23.993Z,66.60
2023-03-06T11:38:57.873Z,64.88
2023-03-06T11:41:35.290Z,64.18
2023-03-06T11:44:13.276Z,64.31
2023-03-06T11:46:46.867Z,65.51
2023-03-06T11:49:24.522Z,64.86
2023-03-06T11:51:57.500Z,62.81
2023-03-06T11:54:30.944Z,62.52
2023-03-06T11:57:07.425Z,61.94
2023-03-06T12:00:07.604Z,62.39
2023-03-06T12:03:28.969Z,61.46
2023-03-06T12:06:09.606Z,61.29
2023-03-06T12:08:58.657Z,61.15
2023-03-06T12:11:35.910Z,60.38
2023-03-06T12:14:26.726Z,60.23
2023-03-06T12:17:23.606Z,59.41
2023-03-06T12:20:14.010Z,59.60
2023-03-06T12:23:02.397Z,60.32
2023-03-06T12:25:40.382Z,58.49
2023-03-06T12:28:28.269Z,58.68
2023-03-06T12:31:12.507Z,57.37
2023-03-06T12:33:51.939Z,57.77
2023-03-06T12:36:33.136Z,58.59
2023-03-06T12:39:13.462Z,58.41
2023-03-06T12:42:22.614Z,57.99
2023-03-06T12:45:38.274Z,58.13
2023-03-06T12:48:15.561Z,57.94
2023-03-06T12:50:50.231Z,57.63
2023-03-06T12:53:26.956Z,58.35
2023-03-06T12:56:01.659Z,57.79
2023-03-06T12:58:48.021Z,55.55
2023-03-06T13:01:52.244Z,54.88
2023-03-06T13:04:40.811Z,54.30
2023-03-06T13:07:22.845Z,53.68
2023-03-06T13:10:11.508Z,56.76
2023-03-06T13:12:53.329Z,52.06
2023-03-06T13:15:46.524Z,52.81
2023-03-06T13:18:51.782Z,49.89
2023-03-06T13:21:50.762Z,50.55
2023-03-06T13:24:26.126Z,50.31
2023-03-06T13:27:04.802Z,52.80
2023-03-06T13:30:22.758Z,52.00
2023-03-06T13:33:02.108Z,52.61
2023-03-06T13:35:57.967Z,53.09
2023-03-06T13:42:04.704Z,52.24
2023-03-06T13:44:51.246Z,51.81
2023-03-06T13:48:10.559Z,53.42
2023-03-06T13:50:30.675Z,50.26
2023-03-06T13:53:27.974Z,50.08
2023-03-06T13:56:32.178Z,51.92
2023-03-06T13:59:16.899Z,53.34
2023-03-06T14:01:56.780Z,54.54
2023-03-06T14:04:39.772Z,54.47
2023-03-06T14:07:30.518Z,55.09
2023-03-06T14:10:23.017Z,56.07
2023-03-06T14:13:05.691Z,56.36
2023-03-06T14:15:46.588Z,56.62
2023-03-06T14:18:23.875Z,56.35
2023-03-06T14:21:00.710Z,56.32
2023-03-06T14:23:37.180Z,56.61
2023-03-06T14:26:17.636Z,56.23
2023-03-06T14:28:59.348Z,56.53
2023-03-06T14:31:34.938Z,56.38
2023-03-06T14:34:09.974Z,56.22
2023-03-06T14:36:48.657Z,56.90
2023-03-06T14:39:24.586Z,57.64
2023-03-06T14:42:09.892Z,57.45
2023-03-06T14:44:43.838Z,57.62
2023-03-06T14:47:28.955Z,58.08
2023-03-06T14:50:24.694Z,58.38
2023-03-06T14:53:00.686Z,57.90
2023-03-06T14:55:37.113Z,58.29
2023-03-06T14:58:19.450Z,58.19
2023-03-06T15:00:56.781Z,58.11
2023-03-06T15:03:34.884Z,58.52
2023-03-06T15:06:09.019Z,59.19
2023-03-06T15:08:44.721Z,59.76
2023-03-06T15:11:18.691Z,60.08
2023-03-06T15:14:04.880Z,60.57
2023-03-06T15:16:38.763Z,60.45
2023-03-06T15:19:21.498Z,60.75
2023-03-06T15:21:55.434Z,61.11
2023-03-06T15:24:38.122Z,61.35
2023-03-06T15:27:20.713Z,61.36
2023-03-06T15:29:54.003Z,61.60
2023-03-06T15:32:34.292Z,61.50
2023-03-06T15:41:28.031Z,61.94
2023-03-06T15:44:03.530Z,62.42
2023-03-06T15:46:36.663Z,63.10
2023-03-06T15:49:15.473Z,63.79
2023-03-06T15:51:48.916Z,64.28
2023-03-06T15:54:22.789Z,64.63
2023-03-06T15:56:56.581Z,64.75
2023-03-06T15:59:32.545Z,64.86
2023-03-06T16:02:13.093Z,65.09
2023-03-06T16:04:47.181Z,65.16
2023-03-06T16:07:20.818Z,65.26
2023-03-06T16:09:54.299Z,65.54
2023-03-06T16:12:27.737Z,65.90
2023-03-06T16:15:02.770Z,66.01
2023-03-06T16:17:36.392Z,66.11
2023-03-06T16:20:17.727Z,66.15
2023-03-06T16:22:53.845Z,66.21
2023-03-06T16:25:28.704Z,66.39
2023-03-06T16:28:02.307Z,66.49
2023-03-06T16:30:38.582Z,66.42
2023-03-06T16:33:13.299Z,66.55
2023-03-06T16:35:47.459Z,66.84
2023-03-06T16:38:20.759Z,67.02
2023-03-06T16:40:53.845Z,67.08
2023-03-06T16:43:27.292Z,67.15
2023-03-06T16:46:01.215Z,67.20
2023-03-06T16:48:34.826Z,67.31
2023-03-06T16:51:11.256Z,67.32
2023-03-06T16:53:44.800Z,67.36
2023-03-06T16:56:20.642Z,67.54
2023-03-06T16:58:54.328Z,67.56
2023-03-06T17:01:28.040Z,67.64
2023-03-06T17:04:02.035Z,67.81
2023-03-06T17:06:35.616Z,68.03
2023-03-06T17:09:11.244Z,68.25
2023-03-06T17:11:46.447Z,68.72
2023-03-06T17:14:19.827Z,69.03
2023-03-06T17:16:54.994Z,69.04
2023-03-06T17:19:28.423Z,69.05
2023-03-06T17:22:02.028Z,69.10
2023-03-06T17:24:36.490Z,69.30
2023-03-06T17:27:10.034Z,69.29
2023-03-06T17:29:43.402Z,69.51
2023-03-06T17:32:17.293Z,69.65
2023-03-06T17:34:50.500Z,69.74
2023-03-06T17:37:24.680Z,69.74
2023-03-06T17:39:58.217Z,69.82
2023-03-06T17:42:31.972Z,69.81
2023-03-06T17:45:08.227Z,69.80
2023-03-06T17:47:41.882Z,69.81
2023-03-06T17:50:52.366Z,69.87
2023-03-06T17:53:32.825Z,69.97
2023-03-06T17:56:11.864Z,69.97
2023-03-06T17:58:45.337Z,70.03
2023-03-06T18:01:21.671Z,70.13
2023-03-06T18:03:55.115Z,70.28
2023-03-06T18:12:19.388Z,70.05
2023-03-06T18:14:52.780Z,70.12
2023-03-06T18:17:28.564Z,70.06
2023-03-06T18:20:02.180Z,70.03
2023-03-06T18:22:35.771Z,69.99
2023-03-06T18:25:10.756Z,69.89
2023-03-06T18:27:44.878Z,69.84
2023-03-06T18:30:20.672Z,69.78
2023-03-06T18:32:57.140Z,69.71
2023-03-06T18:35:36.831Z,69.67
2023-03-06T18:38:10.415Z,69.68
2023-03-06T18:40:44.669Z,69.79
2023-03-06T18:43:31.968Z,69.92
2023-03-06T18:46:09.976Z,70.00
2023-03-06T18:48:56.001Z,70.06
2023-03-06T18:51:34.097Z,70.16
2023-03-06T18:54:16.452Z,69.83
2023-03-06T18:56:49.990Z,69.99
2023-03-06T18:59:23.862Z,70.15
2023-03-06T19:01:58.657Z,70.34
2023-03-06T19:04:32.081Z,70.43
2023-03-06T19:07:05.961Z,70.54
2023-03-06T19:09:39.465Z,70.56
2023-03-06T19:12:12.705Z,70.56
2023-03-06T19:14:46.152Z,70.58
2023-03-06T19:17:19.509Z,70.67
2023-03-06T19:19:55.180Z,70.67
2023-03-06T19:22:28.438Z,70.64
2023-03-06T19:25:03.829Z,70.70
2023-03-06T19:27:38.032Z,70.85
2023-03-06T19:30:17.150Z,71.01
2023-03-06T19:32:50.623Z,71.06
2023-03-06T19:35:24.772Z,71.05
2023-03-06T19:37:58.168Z,70.92
2023-03-06T19:40:31.802Z,70.83
2023-03-06T19:43:06.653Z,70.75
2023-03-06T19:45:43.893Z,70.67
2023-03-06T19:48:17.917Z,70.64
2023-03-06T19:50:51.678Z,70.69
2023-03-06T19:53:24.893Z,70.76
2023-03-06T19:56:08.005Z,70.78
2023-03-06T19:58:43.252Z,70.81
2023-03-06T20:01:18.759Z,70.86
2023-03-06T20:03:55.523Z,70.93
2023-03-06T20:06:31.345Z,71.06
2023-03-06T20:09:07.326Z,71.07
2023-03-06T20:11:41.348Z,71.15
2023-03-06T20:14:17.919Z,71.16
2023-03-06T20:16:51.216Z,71.11
2023-03-06T20:19:27.387Z,71.15
2023-03-06T20:22:01.052Z,71.20
2023-03-06T20:24:34.989Z,71.18
2023-03-06T20:27:08.556Z,71.22
2023-03-06T20:29:44.032Z,71.22
2023-03-06T20:32:17.646Z,71.22
2023-03-06T20:34:51.370Z,71.16
2023-03-06T20:37:24.988Z,71.13
2023-03-06T20:39:58.862Z,71.11
2023-03-06T20:42:35.167Z,71.07
2023-03-06T20:45:10.965Z,70.99
2023-03-06T20:47:46.668Z,71.03
2023-03-06T20:50:20.600Z,71.01
2023-03-06T20:52:56.224Z,71.04
2023-03-06T20:55:29.706Z,71.12
2023-03-06T20:58:04.068Z,71.22
2023-03-06T21:00:37.632Z,71.24
2023-03-06T21:03:11.367Z,71.15
2023-03-06T21:05:46.252Z,71.08
2023-03-06T21:08:19.958Z,71.03
2023-03-06T21:10:53.956Z,71.02
2023-03-06T21:13:27.648Z,71.00
2023-03-06T21:16:03.112Z,70.97
2023-03-06T21:18:36.736Z,70.96
2023-03-06T21:21:11.629Z,71.03
2023-03-06T21:23:46.917Z,71.08
2023-03-06T21:26:22.639Z,70.97
2023-03-06T21:28:58.254Z,70.92
2023-03-06T21:31:33.747Z,70.89
2023-03-06T21:34:16.961Z,70.84
2023-03-06T21:36:53.349Z,70.73
2023-03-06T21:39:32.458Z,70.60
2023-03-06T21:42:10.920Z,70.49
2023-03-06T21:44:45.632Z,70.38
2023-03-06T21:47:19.985Z,70.31
2023-03-06T21:49:54.169Z,70.19
2023-03-06T21:52:28.797Z,70.07
2023-03-06T21:55:06.044Z,69.98
2023-03-06T21:57:41.119Z,69.85
2023-03-06T22:00:17.647Z,69.73
2023-03-06T22:02:52.228Z,69.61
2023-03-06T22:08:09.601Z,69.43
2023-03-06T22:10:43.701Z,69.25
2023-03-06T22:13:17.500Z,69.31
2023-03-06T22:15:58.200Z,69.29
2023-03-06T22:18:32.121Z,69.19
2023-03-06T22:21:11.025Z,69.22
2023-03-06T22:23:44.991Z,69.08
2023-03-06T22:26:18.621Z,68.95
2023-03-06T22:28:52.250Z,68.88
2023-03-06T22:31:27.448Z,68.81
2023-03-06T22:34:02.089Z,68.54
2023-03-06T22:36:35.862Z,68.39
2023-03-06T22:39:09.562Z,68.42
2023-03-06T22:41:43.289Z,68.42
2023-03-06T22:44:19.637Z,68.52
2023-03-06T22:46:53.643Z,68.54
2023-03-06T22:49:27.781Z,68.48
2023-03-06T22:52:01.294Z,68.31
2023-03-06T22:54:34.812Z,68.44
2023-03-06T22:57:08.929Z,68.42
2023-03-06T22:59:42.721Z,68.26
2023-03-06T23:02:16.261Z,68.32
2023-03-06T23:04:54.170Z,68.20
2023-03-06T23:07:28.875Z,68.19
2023-03-06T23:10:07.039Z,68.13
2023-03-06T23:12:58.063Z,68.02
2023-03-06T23:15:49.813Z,68.02
2023-03-06T23:18:42.580Z,67.96
2023-03-06T23:21:34.782Z,67.98
2023-03-06T23:24:26.432Z,68.01
2023-03-06T23:26:59.913Z,68.05
2023-03-06T23:29:35.186Z,68.08
2023-03-06T23:32:10.248Z,68.11
2023-03-06T23:34:43.915Z,68.05
2023-03-06T23:37:17.380Z,68.10
2023-03-06T23:39:51.733Z,68.04
2023-03-06T23:42:25.364Z,68.09
2023-03-06T23:44:59.073Z,68.05
2023-03-06T23:47:35.373Z,67.96
2023-03-06T23:50:10.741Z,67.89
2023-03-06T23:52:44.302Z,67.76
2023-03-06T23:55:18.155Z,67.80
2023-03-06T23:57:51.799Z,67.84
